Position Fahrer Laps Zeit Diff Beste Runde Fahrzeug Status Gesamt Bonuspunkte Strafpunkte
1 (2) Thomas Horn 16 15:54.096 - 0:58.887 NSU TTS Cup Beendet 60 0 0
2 (1) Nicolas Schnabel 16 15:55.090 0:00.994 0:58.723 NSU TTS Cup Beendet 55 0 0
- 3 (3) Reinhard Hiebl 16 15:55.438 0:01.342 0:58.837 NSU TTS Cup Beendet 51 0 0
4 (5) Georg Ortner 16 15:56.825 0:02.729 0:58.918 NSU TTS Cup Beendet 48 0 0
5 (4) Stefan Hilpert 16 15:56.887 0:02.791 0:58.988 NSU TTS Cup Beendet 46 0 0
6 (7) kL1ck kL1ck 16 16:04.985 0:10.889 0:59.195 NSU TTS Cup Beendet 44 0 0
7 (6) Marcel Jochheim 16 16:05.554 0:11.458 0:59.470 NSU TTS Cup Beendet 42 0 0
- 8 (8) Peter Lupfer 16 16:08.326 0:14.230 0:59.463 NSU TTS Cup Beendet 40 0 0
- 9 (9) Pete Snake 16 16:10.665 0:16.569 0:59.393 NSU TTS Cup Beendet 38 0 0
10 (13) Jens Matthes 16 16:40.946 0:46.850 1:00.676 NSU TTS Cup Beendet 36 0 0
11 (10) Sirko Sundermann 16 16:44.557 0:50.461 1:00.412 NSU TTS Cup Beendet 34 0 0
- 12 (12) Lego Maenchen 16 16:58.157 1:04.061 0:59.721 NSU TTS Cup Beendet 33 0 0
13 (11) Steffen Weiß 15 16:01.235 -1L 1:00.237 NSU TTS Cup Beendet 32 0 0

Rennverlauf

Qualifying

Pos Fahrer Zeit Diff
1 Nicolas Schnabel 0:58.533 -
2 Thomas Horn 0:58.598 0:00.065
3 Reinhard Hiebl 0:58.669 0:00.136
4 Stefan Hilpert 0:58.686 0:00.153
5 Georg Ortner 0:58.925 0:00.392
6 Marcel Jochheim 0:59.195 0:00.662
7 kL1ck kL1ck 0:59.435 0:00.902
8 Peter Lupfer 0:59.625 0:01.092
9 Pete Snake 0:59.802 0:01.269
10 Sirko Sundermann 1:00.397 0:01.864
11 Steffen Weiß 1:00.695 0:02.162
12 Lego Maenchen 1:00.854 0:02.321
13 Jens Matthes 1:00.979 0:02.446

Climber

Diff Startpos Endpos Fahrer
3 13 10 Jens Matthes
1 2 1 Thomas Horn
1 5 4 Georg Ortner
1 7 6 kL1ck kL1ck
- - 3 3 Reinhard Hiebl
- - 8 8 Peter Lupfer
- - 9 9 Pete Snake
- - 12 12 Lego Maenchen
-1 1 2 Nicolas Schnabel
-1 4 5 Stefan Hilpert
-1 6 7 Marcel Jochheim
-1 10 11 Sirko Sundermann
-2 11 13 Steffen Weiß

Die schnellsten 5 pro Runde

Runde 1

Pos Rennpos Fahrer Zeit Diff
1 1 Thomas Horn 1:04.832 -
2 2 Reinhard Hiebl 1:05.139 0:00.307
3 3 Nicolas Schnabel 1:05.501 0:00.669
4 4 Stefan Hilpert 1:05.591 0:00.759
5 5 Georg Ortner 1:05.945 0:01.113

Runde 2

Pos Rennpos Fahrer Zeit Diff
1 6 kL1ck kL1ck 0:59.378 -
2 1 Thomas Horn 0:59.517 0:00.139
3 3 Nicolas Schnabel 0:59.703 0:00.325
4 2 Reinhard Hiebl 0:59.768 0:00.390
5 5 Georg Ortner 0:59.809 0:00.431

Runde 3

Pos Rennpos Fahrer Zeit Diff
1 1 Thomas Horn 0:59.169 -
2 2 Reinhard Hiebl 0:59.357 0:00.188
3 3 Nicolas Schnabel 0:59.450 0:00.281
4 4 Stefan Hilpert 0:59.542 0:00.373
5 6 kL1ck kL1ck 0:59.585 0:00.416

Runde 4

Pos Rennpos Fahrer Zeit Diff
1 2 Nicolas Schnabel 0:58.723 -
2 1 Thomas Horn 0:59.139 0:00.416
3 3 Reinhard Hiebl 0:59.455 0:00.732
4 9 Pete Snake 0:59.471 0:00.748
5 7 Marcel Jochheim 0:59.551 0:00.828

Runde 5

Pos Rennpos Fahrer Zeit Diff
1 2 Nicolas Schnabel 0:58.855 -
2 3 Reinhard Hiebl 0:59.244 0:00.389
3 1 Thomas Horn 0:59.291 0:00.436
4 4 Georg Ortner 0:59.446 0:00.591
5 8 Peter Lupfer 0:59.688 0:00.833

Runde 6

Pos Rennpos Fahrer Zeit Diff
1 3 Reinhard Hiebl 0:58.994 -
2 4 Georg Ortner 0:59.241 0:00.247
3 9 Pete Snake 0:59.393 0:00.399
4 1 Thomas Horn 0:59.395 0:00.401
5 2 Nicolas Schnabel 0:59.503 0:00.509

Runde 7

Pos Rennpos Fahrer Zeit Diff
1 6 kL1ck kL1ck 0:59.246 -
2 5 Stefan Hilpert 0:59.314 0:00.068
3 4 Georg Ortner 0:59.524 0:00.278
4 1 Thomas Horn 0:59.584 0:00.338
5 2 Nicolas Schnabel 0:59.654 0:00.408

Runde 8

Pos Rennpos Fahrer Zeit Diff
1 1 Thomas Horn 0:58.960 -
2 2 Nicolas Schnabel 0:59.027 0:00.067
3 5 Stefan Hilpert 0:59.414 0:00.454
4 3 Reinhard Hiebl 0:59.485 0:00.525
5 4 Georg Ortner 0:59.526 0:00.566

Runde 9

Pos Rennpos Fahrer Zeit Diff
1 1 Nicolas Schnabel 0:58.940 -
2 6 kL1ck kL1ck 0:59.195 0:00.255
3 4 Georg Ortner 0:59.237 0:00.297
4 5 Stefan Hilpert 0:59.356 0:00.416
5 3 Reinhard Hiebl 0:59.361 0:00.421

Runde 10

Pos Rennpos Fahrer Zeit Diff
1 4 Georg Ortner 0:58.970 -
2 5 Stefan Hilpert 0:58.991 0:00.021
3 2 Thomas Horn 0:59.141 0:00.171
4 3 Reinhard Hiebl 0:59.210 0:00.240
5 1 Nicolas Schnabel 0:59.275 0:00.305

Runde 11

Pos Rennpos Fahrer Zeit Diff
1 5 Stefan Hilpert 0:58.988 -
2 1 Nicolas Schnabel 0:59.010 0:00.022
3 2 Thomas Horn 0:59.064 0:00.076
4 4 Georg Ortner 0:59.221 0:00.233
5 9 Pete Snake 0:59.752 0:00.764

Runde 12

Pos Rennpos Fahrer Zeit Diff
1 2 Thomas Horn 0:58.887 -
2 1 Nicolas Schnabel 0:59.149 0:00.262
3 4 Georg Ortner 0:59.245 0:00.358
4 5 Stefan Hilpert 0:59.321 0:00.434
5 7 Marcel Jochheim 0:59.521 0:00.634

Runde 13

Pos Rennpos Fahrer Zeit Diff
1 3 Reinhard Hiebl 0:58.867 -
2 2 Thomas Horn 0:59.165 0:00.298
3 1 Nicolas Schnabel 0:59.218 0:00.351
4 4 Georg Ortner 0:59.357 0:00.490
5 6 kL1ck kL1ck 0:59.539 0:00.672

Runde 14

Pos Rennpos Fahrer Zeit Diff
1 4 Georg Ortner 0:58.934 -
2 5 Stefan Hilpert 0:59.140 0:00.206
3 3 Reinhard Hiebl 0:59.160 0:00.226
4 1 Thomas Horn 0:59.201 0:00.267
5 9 Pete Snake 0:59.596 0:00.662

Runde 15

Pos Rennpos Fahrer Zeit Diff
1 4 Georg Ortner 0:58.918 -
2 5 Stefan Hilpert 0:59.036 0:00.118
3 3 Reinhard Hiebl 0:59.113 0:00.195
4 1 Thomas Horn 0:59.317 0:00.399
5 2 Nicolas Schnabel 0:59.442 0:00.524

Runde 16

Pos Rennpos Fahrer Zeit Diff
1 3 Reinhard Hiebl 0:58.837 -
2 1 Thomas Horn 0:58.916 0:00.079
3 5 Stefan Hilpert 0:59.052 0:00.215
4 2 Nicolas Schnabel 0:59.411 0:00.574
5 7 Marcel Jochheim 0:59.470 0:00.633

SERVER

0 / 61
virtualracing.org #1 GTM
Training 1Lime Rock Park -- Uphill Chicane
0 / 81
virtualracing.org #3 FS
Training 1Oulton Park International NC
0 / 81
virtualracing.org #4 LSM
Training 1Spa-Francorchamps Endurance
0 / 34
virtualracing.org #5 VRF1S
Training 1Zandvoort 2021
0 / 34
virtualracing.org #6 VRCS
Training 1Donington Park National Circuit
0 / 81
virtualracing.org #P1 BTCC
Training 1Thruxton Motorsport Centre
0 / 81
virtualracing.org #P2 CA
Training 1Oulton Park Fosters
0 / 34
virtualracing.org #P3 Mini
Training 1Brands Hatch GP
0 / 33
virtualracing.org #P4 IR18
Training 1Portland Full Course
0/31
virtualracing.org#4 GTC Training Standard
TrainingDaytona International Speedway - Road Course
0/31
virtualracing.org#5 GTC Training A
TrainingDaytona International Speedway - Road Course
0/24
virtualracing.org#30 ALT Training
TrainingFuji Speedway - Grand Prix Circuit 1968
0/32
virtualracing.org#33 GTC Starttest
TrainingDaytona International Speedway - Road Course